createdAt,value
2019-05-17T09:13:00.032Z,44.3870
2019-05-17T09:13:12.415Z,41.1963
2019-05-17T09:13:22.883Z,41.0269
2019-05-17T09:13:31.284Z,41.0010
2019-05-17T09:13:40.084Z,42.1820
2019-05-17T09:13:58.317Z,39.8886
2019-05-17T09:14:10.468Z,42.5986
2019-05-17T09:14:21.359Z,42.6947
2019-05-17T09:14:29.918Z,40.4105
2019-05-17T09:14:40.091Z,38.2177
2019-05-17T09:14:49.612Z,41.9348
2019-05-17T09:15:00.258Z,36.5118
2019-05-17T09:15:10.074Z,32.0851
2019-05-17T09:15:20.329Z,30.6157
2019-05-17T09:15:29.670Z,31.8883
2019-05-17T09:15:39.941Z,29.5048
2019-05-17T09:15:49.440Z,29.7749
2019-05-17T09:16:00.146Z,30.0999
2019-05-17T09:16:10.690Z,28.5069
2019-05-17T09:16:19.712Z,28.3864
2019-05-17T09:16:30.574Z,28.4566
2019-05-17T09:16:40.087Z,29.4621
2019-05-17T09:16:50.441Z,28.9555
2019-05-17T09:17:00.430Z,28.3360
2019-05-17T09:17:10.281Z,27.6600
2019-05-17T09:17:19.403Z,27.5303
2019-05-17T09:17:29.913Z,27.0420
2019-05-17T09:17:39.597Z,27.1885
2019-05-17T09:17:49.855Z,27.8096
2019-05-17T09:18:00.281Z,28.5649
2019-05-17T09:18:09.913Z,29.8024
2019-05-17T09:18:20.656Z,27.1321
2019-05-17T09:18:30.163Z,27.1290
2019-05-17T09:18:39.448Z,28.0766
2019-05-17T09:18:50.031Z,28.0491
2019-05-17T09:19:00.565Z,27.6265
2019-05-17T09:19:10.100Z,29.7597
2019-05-17T09:19:19.416Z,28.1849
2019-05-17T09:19:29.897Z,28.7755
2019-05-17T09:19:39.474Z,28.2399
2019-05-17T09:19:50.507Z,27.9850
2019-05-17T09:20:00.722Z,29.4072
2019-05-17T09:20:10.697Z,31.5541
2019-05-17T09:20:20.396Z,33.0251
2019-05-17T09:20:29.631Z,33.7331
2019-05-17T09:20:40.241Z,38.0163
2019-05-17T09:20:49.498Z,33.3684
2019-05-17T09:21:00.068Z,35.0576
2019-05-17T09:21:09.697Z,43.1250
2019-05-17T09:21:18.256Z,32.9152
2019-05-17T09:21:26.680Z,33.2723
2019-05-17T09:21:35.087Z,33.8811
2019-05-17T09:21:43.503Z,34.4671
2019-05-17T09:21:51.918Z,34.7814
2019-05-17T09:22:00.327Z,34.8928
2019-05-17T09:22:10.536Z,35.2590
2019-05-17T09:22:19.806Z,35.2850
2019-05-17T09:22:30.419Z,35.0652
2019-05-17T09:22:39.589Z,35.8480
2019-05-17T09:22:48.303Z,38.5504
2019-05-17T09:22:56.715Z,35.1385
2019-05-17T09:23:05.144Z,34.9203
2019-05-17T09:23:13.558Z,35.0988
2019-05-17T09:23:21.960Z,36.9711
2019-05-17T09:23:30.673Z,36.2829
2019-05-17T09:23:39.692Z,34.7097
2019-05-17T09:23:50.224Z,37.7768
2019-05-17T09:23:59.751Z,38.1109
2019-05-17T09:24:10.253Z,36.7330
2019-05-17T09:24:35.339Z,39.2782
2019-05-17T09:24:43.742Z,39.8886
2019-05-17T09:24:52.149Z,39.7955
2019-05-17T09:25:00.562Z,41.4633
2019-05-17T09:25:13.587Z,42.8855
2019-05-17T09:25:23.382Z,43.0243
2019-05-17T09:25:31.802Z,42.9099
2019-05-17T09:25:40.263Z,42.8595
2019-05-17T09:25:50.073Z,42.9175
2019-05-17T09:25:59.522Z,43.0823
2019-05-17T09:26:10.059Z,43.3112
2019-05-17T09:26:19.978Z,43.5904
2019-05-17T09:26:29.412Z,43.8300
2019-05-17T09:26:39.949Z,44.0040
2019-05-17T09:26:49.217Z,44.3061
2019-05-17T09:26:59.857Z,44.5792
2019-05-17T09:39:15.463Z,42.3270
2019-05-17T09:39:23.883Z,42.3682
2019-05-17T09:39:32.360Z,42.3774
2019-05-17T09:39:40.774Z,42.4567
2019-05-17T09:39:49.323Z,42.5071
2019-05-17T09:39:59.700Z,42.5345
2019-05-17T09:40:09.359Z,42.5299
2019-05-17T09:40:20.027Z,42.5803
2019-05-17T09:40:29.270Z,42.6108
2019-05-17T09:40:40.130Z,42.5986
2019-05-17T09:40:50.549Z,42.5925
2019-05-17T09:41:00.014Z,42.6535
2019-05-17T09:41:09.364Z,40.7355
2019-05-17T09:41:19.886Z,48.0766
2019-05-17T09:41:29.319Z,55.4574
2019-05-17T09:41:39.752Z,59.9756
2019-05-17T09:41:50.299Z,65.7694
2019-05-17T09:41:59.597Z,70.8324
2019-05-17T09:42:10.191Z,73.1319
2019-05-17T09:42:20.945Z,73.9223
2019-05-17T09:42:30.088Z,73.3455
2019-05-17T09:42:41.147Z,72.2438
2019-05-17T09:42:50.056Z,70.4494
2019-05-17T09:43:00.523Z,68.8045
2019-05-17T09:43:10.213Z,67.1611
2019-05-17T09:43:20.524Z,66.0227
2019-05-17T09:43:29.647Z,64.6265
2019-05-17T09:43:40.226Z,63.2700
2019-05-17T09:43:49.686Z,61.6144
2019-05-17T09:44:09.600Z,60.1617
2019-05-17T09:44:16.192Z,58.2589
2019-05-17T09:44:25.114Z,56.8399
2019-05-17T09:44:33.621Z,55.8831
2019-05-17T09:44:42.643Z,55.0774
2019-05-17T09:44:51.120Z,54.3038
2019-05-17T09:45:00.390Z,53.6492
2019-05-17T09:45:09.654Z,52.9290
2019-05-17T09:45:20.206Z,52.3400
2019-05-17T09:45:30.606Z,51.7037
2019-05-17T09:45:40.396Z,51.1162
2019-05-17T09:45:50.667Z,50.5776
2019-05-17T09:46:01.689Z,50.2281
2019-05-17T09:46:10.807Z,49.8817
2019-05-17T09:46:19.786Z,49.5415
2019-05-17T09:46:30.283Z,49.2256
2019-05-17T09:46:39.565Z,48.8594
